Weather reports worldwide

Advertisment
Cazalla de la Sierra, Spain (8392): temperature & dewpoint: 16.02.2019 22:00:00 - 22.02.2019 22:00:00 (CET)Cazalla de la Sierra, Spain (8392): wind speed & gusts: 16.02.2019 22:00:00 - 22.02.2019 22:00:00 (CET)Cazalla de la Sierra, Spain (8392): wind direction: 16.02.2019 22:00:00 - 22.02.2019 22:00:00 (CET)Cazalla de la Sierra, Spain (8392): reduced air pressure: 16.02.2019 22:00:00 - 22.02.2019 22:00:00 (CET)Cazalla de la Sierra, Spain (8392): precipitation: 16.02.2019 22:00:00 - 22.02.2019 22:00:00 (CET)
Date & Time tt [°C] td [°C] ff [km/h] ff [kn] fx [km/h] fx [kn] dd ppp [hPa] rr [mm]
22.02.2019 22:00:00 - - - - - - - - -
22.02.2019 21:00:00 - - - - - - - - -
22.02.2019 20:00:00 8,3 3,8 4 2 6 3 ESE 1030,3 0,0
22.02.2019 19:00:00 12,2 3,2 4 2 9 5 ESE 1028,8 -
22.02.2019 18:00:00 17,5 2,7 5 3 12 7 SSE 1027,6 0,0
22.02.2019 17:00:00 18,7 2,1 7 4 16 9 S 1027,5 0,0
22.02.2019 16:00:00 18,9 1,5 8 4 16 9 SSE 1027,3 0,0
22.02.2019 15:00:00 18,6 1,5 8 4 20 11 SSE 1027,3 0,0
22.02.2019 14:00:00 17,9 0,4 11 6 26 14 SSE 1028,1 0,0
22.02.2019 13:00:00 17,3 0,4 12 7 29 16 SE 1028,7 -
22.02.2019 12:00:00 16,2 0,6 11 6 24 13 SE 1029,2 0,0
22.02.2019 11:00:00 14,3 1,9 11 6 24 13 E 1029,5 0,0
22.02.2019 10:00:00 12,3 2,5 11 6 17 9 E 1029,8 0,0
22.02.2019 09:00:00 9,6 2,5 10 5 23 12 ESE 1029,8 0,0
22.02.2019 08:00:00 8,2 1,9 11 6 20 11 ESE 1030,0 0,0
22.02.2019 07:00:00 9,7 1,5 13 7 22 12 ESE 1029,4 -
22.02.2019 06:00:00 9,8 1,7 13 7 22 12 E 1029,4 0,0
22.02.2019 05:00:00 8,8 2,1 12 7 17 9 E 1029,7 0,0
22.02.2019 04:00:00 8,6 2,9 9 5 16 9 E 1030,0 0,0
22.02.2019 03:00:00 8,5 2,7 11 6 19 10 E 1030,1 0,0
22.02.2019 02:00:00 9,3 2,7 9 5 19 10 E 1029,8 0,0
22.02.2019 01:00:00 - - - - - - - - -
22.02.2019 00:00:00 7,7 1,9 4 2 11 6 E 1030,4 0,0
21.02.2019 23:00:00 8,6 3,0 7 4 11 6 ESE 1029,8 0,0
21.02.2019 22:00:00 - - - - - - - - -
21.02.2019 21:00:00 9,6 4,6 4 2 8 4 ESE 1028,7 0,0
21.02.2019 20:00:00 - - - - - - - - -
21.02.2019 19:00:00 13,0 3,4 4 2 13 7 ESE 1026,3 -
21.02.2019 18:00:00 15,6 3,4 7 4 16 9 SSE 1025,2 0,0
21.02.2019 17:00:00 16,6 3,9 9 5 21 11 ESE 1024,9 0,0
21.02.2019 16:00:00 16,5 3,9 10 5 21 11 SE 1025,0 0,0
21.02.2019 15:00:00 16,3 3,4 11 6 23 12 SSE 1025,0 0,0
21.02.2019 14:00:00 15,6 3,4 10 6 25 13 SSE 1025,2 0,0
21.02.2019 13:00:00 14,8 3,2 13 7 27 14 ESE 1025,7 -
21.02.2019 12:00:00 13,7 2,9 14 7 25 14 ESE 1025,7 0,0
21.02.2019 11:00:00 12,5 3,4 8 4 22 12 ESE 1025,8 0,0
21.02.2019 10:00:00 10,7 4,3 13 7 25 14 ESE 1025,8 0,0
21.02.2019 09:00:00 9,1 4,5 8 5 21 11 ESE 1025,6 0,0
21.02.2019 08:00:00 8,2 3,9 8 5 21 11 ESE 1025,0 0,0
21.02.2019 07:00:00 8,1 4,3 11 6 21 11 ESE 1024,7 -
21.02.2019 06:00:00 7,3 3,9 6 3 14 7 E 1024,9 0,0
21.02.2019 05:00:00 7,2 4,6 8 5 11 6 E 1024,8 0,0
21.02.2019 04:00:00 7,8 4,3 6 4 13 7 E 1024,8 0,0
21.02.2019 03:00:00 7,8 4,1 8 4 12 7 E 1025,1 0,0
21.02.2019 02:00:00 8,5 3,8 8 4 13 7 E 1024,9 0,0
21.02.2019 01:00:00 9,0 3,2 5 3 14 7 E 1024,7 -
21.02.2019 00:00:00 9,0 3,6 6 4 13 7 E 1024,8 0,0
20.02.2019 23:00:00 - - - - - - - - -
20.02.2019 22:00:00 - - - - - - - - -
20.02.2019 21:00:00 - - - - - - - - -
20.02.2019 20:00:00 - - - - - - - - -
20.02.2019 19:00:00 11,3 5,5 2 1 10 5 E 1022,4 -
20.02.2019 18:00:00 14,6 5,1 7 4 16 9 SSE 1021,4 0,0
20.02.2019 17:00:00 15,7 4,6 7 4 16 8 SSE 1021,2 0,0
20.02.2019 16:00:00 16,2 5,1 8 4 16 9 ESE 1021,0 0,0
20.02.2019 15:00:00 15,8 5,5 6 3 17 9 ESE 1021,3 0,0
20.02.2019 14:00:00 15,1 5,6 8 4 19 11 ESE 1021,9 0,0
20.02.2019 13:00:00 14,1 5,0 9 5 21 11 SSE 1022,8 -
20.02.2019 12:00:00 13,5 4,8 10 5 22 12 SSE 1022,8 0,0
20.02.2019 11:00:00 12,5 5,6 9 5 17 9 SSE 1022,6 0,0
20.02.2019 10:00:00 10,2 7,1 7 4 11 6 E 1022,7 0,0
20.02.2019 09:00:00 5,9 4,8 3 2 6 3 SSE 1023,2 0,0
20.02.2019 08:00:00 3,9 3,0 5 3 7 4 SE 1022,7 0,0
20.02.2019 07:00:00 3,6 2,7 5 3 6 3 ESE 1022,4 -
20.02.2019 06:00:00 4,0 3,0 4 2 6 3 E 1021,8 0,0
20.02.2019 05:00:00 4,8 3,8 5 3 7 4 ESE 1021,9 0,0
20.02.2019 04:00:00 5,3 3,8 3 2 6 3 ESE 1022,0 0,0
20.02.2019 03:00:00 6,5 4,6 5 3 8 5 ESE 1021,7 0,0
20.02.2019 02:00:00 6,8 5,0 3 2 7 4 ESE 1021,6 0,0
20.02.2019 01:00:00 - - - - - - - - -
20.02.2019 00:00:00 9,3 6,1 4 2 10 5 E 1021,1 0,0
19.02.2019 23:00:00 9,9 6,1 7 4 13 7 ESE 1020,9 0,0
19.02.2019 22:00:00 - - - - - - - - -
19.02.2019 21:00:00 - - - - - - - - -
19.02.2019 20:00:00 - - - - - - - - -
19.02.2019 19:00:00 9,7 7,0 0 0 13 7 W 1018,9 -
19.02.2019 18:00:00 10,3 5,6 10 6 23 12 N 1018,7 0,1
19.02.2019 17:00:00 11,9 5,3 5 3 16 9 NNW 1018,5 0,0
19.02.2019 16:00:00 16,3 6,7 5 3 17 9 S 1017,0 0,1
19.02.2019 15:00:00 17,0 7,3 1 1 16 9 WSW 1017,2 0,0
19.02.2019 14:00:00 15,1 6,1 3 2 8 5 WNW 1018,1 0,0
19.02.2019 13:00:00 14,3 5,9 1 0 12 6 N 1019,1 -
19.02.2019 12:00:00 13,7 5,6 4 2 8 4 SW 1019,3 0,0
19.02.2019 11:00:00 13,2 5,3 3 1 5 3 S 1019,3 0,0
19.02.2019 10:00:00 9,9 6,1 3 1 5 3 ESE 1020,1 0,0
19.02.2019 09:00:00 5,9 4,5 4 2 8 4 SE 1020,8 0,0
19.02.2019 08:00:00 6,2 4,5 4 2 6 3 E 1020,0 0,0
19.02.2019 07:00:00 7,1 5,3 3 1 5 3 SE 1019,7 -
19.02.2019 06:00:00 7,1 5,3 2 1 4 2 E 1019,9 0,0
19.02.2019 05:00:00 7,5 5,6 3 2 8 4 ESE 1019,9 0,0
19.02.2019 04:00:00 7,5 5,6 3 1 5 3 E 1019,9 0,0
19.02.2019 03:00:00 7,1 5,5 0 0 4 2 SW 1020,2 0,0
19.02.2019 02:00:00 6,5 4,8 4 2 5 3 E 1020,1 0,0
19.02.2019 01:00:00 5,6 4,1 2 1 5 3 ESE 1020,1 -
19.02.2019 00:00:00 5,0 3,4 3 1 7 4 SE 1020,1 0,0
18.02.2019 23:00:00 5,3 3,4 4 2 7 4 ESE 1019,8 0,0
18.02.2019 22:00:00 6,1 3,8 4 2 7 4 SE 1019,1 0,0
18.02.2019 21:00:00 6,5 3,6 4 2 7 4 ESE 1018,4 0,0
18.02.2019 20:00:00 8,2 3,6 4 2 8 4 E 1017,6 0,0
18.02.2019 19:00:00 11,8 2,9 5 3 12 7 SE 1016,0 -
18.02.2019 18:00:00 13,7 2,9 8 4 19 11 ESE 1015,2 0,0
18.02.2019 17:00:00 14,2 3,0 12 6 19 10 SE 1014,9 0,0
18.02.2019 16:00:00 13,9 2,7 11 6 22 12 ESE 1014,8 0,0
18.02.2019 15:00:00 13,6 2,9 12 7 25 13 SE 1015,3 0,0
18.02.2019 14:00:00 13,9 3,0 8 4 20 11 SE 1015,6 0,0
18.02.2019 13:00:00 12,7 3,4 10 6 18 10 SE 1016,6 -
18.02.2019 12:00:00 10,6 2,5 10 5 25 14 ESE 1017,2 0,0
18.02.2019 11:00:00 10,1 2,5 12 6 26 14 ESE 1017,2 0,0
18.02.2019 10:00:00 9,8 1,9 0 0 0 0 N 1017,2 0,0
18.02.2019 09:00:00 - - - - - - - - -
18.02.2019 08:00:00 6,7 3,8 6 3 13 7 ESE 1017,0 0,0
18.02.2019 07:00:00 6,0 3,6 5 3 14 8 ESE 1017,3 -
18.02.2019 06:00:00 7,0 4,5 7 4 15 8 E 1017,3 0,0
18.02.2019 05:00:00 7,6 5,6 7 4 15 8 SE 1017,4 0,0
18.02.2019 04:00:00 5,0 4,1 1 1 4 2 SE 1018,7 0,0
18.02.2019 03:00:00 5,3 4,5 2 1 7 4 SE 1019,0 0,0
18.02.2019 02:00:00 5,8 5,0 4 2 6 3 ESE 1019,3 0,0
18.02.2019 01:00:00 5,8 4,6 0 0 4 2 SSE 1019,9 -
18.02.2019 00:00:00 6,8 5,3 0 0 6 3 ENE 1020,1 0,0
17.02.2019 23:00:00 7,3 5,1 1 1 5 3 W 1020,2 0,0
17.02.2019 22:00:00 7,2 4,3 0 0 4 2 WNW 1020,4 0,0
17.02.2019 21:00:00 7,5 4,3 4 2 5 3 E 1020,2 0,0
17.02.2019 20:00:00 8,8 3,9 4 2 7 4 SSE 1019,6 0,0
17.02.2019 19:00:00 13,2 3,2 3 2 14 8 SSW 1018,4 -
17.02.2019 18:00:00 15,1 4,1 6 4 16 9 S 1018,0 0,0
17.02.2019 17:00:00 15,8 3,9 8 5 19 10 SSE 1017,9 0,0
17.02.2019 16:00:00 16,0 3,8 7 4 18 10 SE 1018,5 0,0
17.02.2019 15:00:00 15,8 3,9 6 4 20 11 SSE 1019,2 0,0
17.02.2019 14:00:00 14,8 3,6 8 5 18 10 SSE 1020,3 0,0
17.02.2019 13:00:00 14,6 4,6 11 6 23 12 SE 1021,1 -
17.02.2019 12:00:00 14,0 3,4 8 4 18 10 ESE 1021,6 0,0
17.02.2019 11:00:00 12,1 4,3 9 5 20 11 ESE 1022,3 0,0
17.02.2019 10:00:00 9,4 4,8 11 6 20 11 E 1023,0 0,0
17.02.2019 09:00:00 4,1 2,7 2 1 9 5 ESE 1024,2 0,0
17.02.2019 08:00:00 4,8 3,2 6 4 11 6 ESE 1023,4 0,0
17.02.2019 07:00:00 4,5 2,3 1 1 10 5 W 1023,5 -
17.02.2019 06:00:00 6,9 3,4 8 4 15 8 E 1022,4 0,0
17.02.2019 05:00:00 8,4 3,4 9 5 29 15 ESE 1022,1 0,0
17.02.2019 04:00:00 8,5 2,9 16 8 30 16 ESE 1021,4 0,0
17.02.2019 03:00:00 7,8 3,2 8 4 17 9 E 1023,1 0,0
17.02.2019 02:00:00 7,8 3,9 7 4 15 8 E 1023,3 0,0
17.02.2019 01:00:00 9,1 4,3 9 5 22 12 SE 1023,3 -
17.02.2019 00:00:00 9,2 3,8 10 5 19 11 SE 1023,5 0,0
16.02.2019 23:00:00 8,1 3,4 6 3 11 6 E 1024,1 0,0
16.02.2019 22:00:00 9,2 3,6 7 4 14 7 ESE 1023,8 0,0

tt = temperature
td = dewpoint
ff = wind speed
fx = gusts
dd = wind direction
ppp = reduced air pressure
rr = precipitation

Next stations